Time;durP1;ratioP1;P1;durP2;ratioP2;P2;SDS_P1;SDS_P2;PMS_P1;PMS_P2;Temp;Humidity;BMP_temperature;BMP_pressure;BME280_temperature;BME280_humidity;BME280_pressure;Samples;Min_cycle;Max_cycle;Signal;HPM_P1;HPM_P2
2022/08/09 00:00:09;;;;;;;2.30;1.70;;;15.70;73.70;;;;;;5086042;28;20032;-89
2022/08/09 00:02:35;;;;;;;3.90;1.70;;;15.60;73.90;;;;;;5090175;28;20062;-88
2022/08/09 00:05:02;;;;;;;3.47;1.63;;;15.50;74.00;;;;;;5088228;28;20111;-87
2022/08/09 00:07:28;;;;;;;3.05;1.70;;;15.40;73.80;;;;;;5087803;28;20020;-88
2022/08/09 00:09:54;;;;;;;3.13;1.70;;;15.30;74.00;;;;;;5089140;28;20534;-88
2022/08/09 00:12:20;;;;;;;2.15;1.60;;;15.20;74.60;;;;;;5078433;28;20107;-88
2022/08/09 00:14:46;;;;;;;3.55;1.90;;;15.00;74.50;;;;;;5087875;28;20395;-88
2022/08/09 00:17:11;;;;;;;2.70;1.60;;;14.90;74.60;;;;;;5061462;28;20112;-88
2022/08/09 00:19:37;;;;;;;2.67;1.67;;;14.80;75.50;;;;;;5083869;28;20028;-88
2022/08/09 00:22:03;;;;;;;2.65;1.60;;;14.70;76.10;;;;;;5094839;28;20021;-86
2022/08/09 00:24:30;;;;;;;2.20;1.58;;;14.60;76.00;;;;;;5093489;28;20492;-89
2022/08/09 00:26:57;;;;;;;5.88;1.52;;;14.60;75.50;;;;;;5068235;28;20028;-87
2022/08/09 00:29:23;;;;;;;3.67;1.70;;;14.50;76.40;;;;;;5083606;28;20025;-87
2022/08/09 00:31:49;;;;;;;2.08;1.55;;;14.50;76.50;;;;;;5068954;28;20024;-88
2022/08/09 00:34:15;;;;;;;3.22;1.73;;;14.50;76.50;;;;;;5082800;28;20393;-88
2022/08/09 00:36:40;;;;;;;3.35;1.70;;;14.40;76.80;;;;;;5089629;28;20028;-88
2022/08/09 00:39:07;;;;;;;3.60;1.83;;;14.40;76.70;;;;;;5084271;28;20028;-88
2022/08/09 00:41:32;;;;;;;2.85;2.05;;;14.30;78.00;;;;;;5090615;28;20549;-88
2022/08/09 00:43:58;;;;;;;3.92;1.70;;;14.30;78.20;;;;;;5082237;28;20029;-88
2022/08/09 00:46:24;;;;;;;2.08;1.50;;;14.20;77.90;;;;;;5083003;28;20050;-88
2022/08/09 00:48:50;;;;;;;2.78;1.60;;;14.20;79.10;;;;;;5091231;28;20020;-89
2022/08/09 00:51:16;;;;;;;2.75;1.70;;;14.10;80.10;;;;;;5086958;28;20396;-88
2022/08/09 00:53:44;;;;;;;3.70;2.15;;;14.10;80.40;;;;;;5086059;28;20027;-89
2022/08/09 00:56:10;;;;;;;6.95;1.92;;;14.00;80.60;;;;;;5079544;28;20121;-87
2022/08/09 00:58:36;;;;;;;4.65;2.70;;;14.00;81.80;;;;;;5098144;28;20107;-88
2022/08/09 01:01:10;;;;;;;2.55;2.10;;;14.00;81.40;;;;;;5075942;28;20361;-88
2022/08/09 01:03:41;;;;;;;2.53;1.88;;;13.90;82.50;;;;;;5091799;28;20029;-88
2022/08/09 01:06:09;;;;;;;4.13;1.70;;;13.90;83.10;;;;;;5095962;28;20085;-88
2022/08/09 01:08:47;;;;;;;2.17;1.95;;;13.80;85.40;;;;;;5081886;28;20024;-88
2022/08/09 01:11:50;;;;;;;3.47;2.10;;;13.80;84.30;;;;;;5075786;28;20567;-88
2022/08/09 01:14:36;;;;;;;2.90;1.92;;;13.70;87.10;;;;;;5087763;28;20050;-88
2022/08/09 01:17:18;;;;;;;2.47;2.22;;;13.70;87.70;;;;;;5071874;28;20404;-88
2022/08/09 01:19:55;;;;;;;;;;;13.70;89.30;;;;;;5091145;28;20119;-88
2022/08/09 01:22:42;;;;;;;3.35;1.90;;;13.60;90.00;;;;;;5083381;28;19995;-87
2022/08/09 01:25:33;;;;;;;2.28;1.92;;;13.50;90.20;;;;;;5082989;28;20030;-88
2022/08/09 01:28:01;;;;;;;4.63;2.20;;;13.50;90.40;;;;;;5082876;28;20032;-88
2022/08/09 01:30:29;;;;;;;4.03;2.25;;;13.40;91.10;;;;;;5086018;28;20035;-88
2022/08/09 01:32:56;;;;;;;4.25;2.53;;;13.30;91.40;;;;;;5072708;28;20032;-87
2022/08/09 01:35:47;;;;;;;4.80;2.22;;;13.30;91.30;;;;;;5082397;28;20085;-86
2022/08/09 01:38:17;;;;;;;4.10;2.28;;;13.20;91.50;;;;;;5068699;28;20685;-88
2022/08/09 01:40:49;;;;;;;2.30;2.10;;;13.20;92.30;;;;;;5081303;28;20029;-87
2022/08/09 01:43:16;;;;;;;2.95;2.38;;;13.10;92.70;;;;;;5080836;28;20040;-88
2022/08/09 01:45:43;;;;;;;4.85;2.40;;;13.10;93.50;;;;;;5085428;28;20020;-88
2022/08/09 01:48:10;;;;;;;5.13;2.33;;;13.00;93.70;;;;;;5081090;28;20553;-88
2022/08/09 01:50:37;;;;;;;2.90;2.30;;;12.90;93.90;;;;;;5075870;28;20060;-87
2022/08/09 01:53:05;;;;;;;2.35;2.15;;;12.90;94.60;;;;;;5072238;28;20017;-87
2022/08/09 01:55:33;;;;;;;2.25;2.00;;;12.80;95.30;;;;;;5087806;28;20391;-88
2022/08/09 01:58:00;;;;;;;2.30;2.10;;;12.70;95.40;;;;;;5086918;28;20126;-87
2022/08/09 02:00:27;;;;;;;4.45;2.22;;;12.70;95.60;;;;;;5072201;28;20043;-89
2022/08/09 02:02:53;;;;;;;2.45;2.00;;;12.60;96.10;;;;;;5057092;28;20370;-87
2022/08/09 02:05:22;;;;;;;3.70;2.25;;;12.60;96.70;;;;;;5069319;28;20028;-87
2022/08/09 02:07:52;;;;;;;3.95;2.28;;;12.50;96.90;;;;;;5070192;28;20024;-88
2022/08/09 02:10:25;;;;;;;2.90;2.53;;;12.50;97.30;;;;;;5071763;28;20031;-88
2022/08/09 02:12:54;;;;;;;4.43;2.65;;;12.40;97.80;;;;;;5084282;28;20023;-88
2022/08/09 02:15:24;;;;;;;4.03;2.55;;;12.40;97.90;;;;;;5081217;28;20037;-88
2022/08/09 02:17:52;;;;;;;3.53;2.50;;;12.40;98.60;;;;;;5084976;28;20415;-87
2022/08/09 02:20:18;;;;;;;5.90;2.28;;;12.30;98.90;;;;;;5087750;28;20024;-88
2022/08/09 02:22:51;;;;;;;3.30;2.60;;;12.30;99.40;;;;;;5079706;28;20111;-88
2022/08/09 02:25:21;;;;;;;3.28;2.55;;;12.30;99.90;;;;;;5063668;28;20038;-90
2022/08/09 02:27:56;;;;;;;10.70;2.55;;;12.20;99.90;;;;;;5082669;28;20031;-88
2022/08/09 02:30:22;;;;;;;3.92;2.88;;;12.20;99.90;;;;;;5085867;28;20092;-86
2022/08/09 02:32:50;;;;;;;4.90;2.90;;;12.10;99.90;;;;;;5068554;28;20255;-88
2022/08/09 02:35:22;;;;;;;8.25;2.58;;;12.10;99.90;;;;;;5086073;28;20044;-88
2022/08/09 02:37:50;;;;;;;3.28;2.70;;;12.10;99.90;;;;;;5069420;28;20063;-87
2022/08/09 02:40:17;;;;;;;4.40;2.67;;;12.10;99.90;;;;;;5064014;28;20024;-88
2022/08/09 02:42:48;;;;;;;9.70;2.83;;;12.00;99.90;;;;;;5086347;28;20392;-88
2022/08/09 02:45:29;;;;;;;4.38;2.83;;;12.00;99.90;;;;;;5084646;28;20416;-88
2022/08/09 02:48:01;;;;;;;4.10;3.28;;;12.00;99.90;;;;;;5069874;28;20028;-88
2022/08/09 02:50:49;;;;;;;3.83;2.75;;;12.00;99.90;;;;;;5093961;28;20028;-88
2022/08/09 02:53:24;;;;;;;4.55;2.75;;;12.00;99.90;;;;;;5091871;28;20614;-87
2022/08/09 02:55:52;;;;;;;3.92;3.05;;;12.00;99.90;;;;;;5086309;28;20377;-88
2022/08/09 02:58:21;;;;;;;3.17;2.90;;;11.90;99.90;;;;;;5088312;28;20020;-87
2022/08/09 03:00:49;;;;;;;3.08;2.78;;;11.90;99.90;;;;;;5086218;28;20539;-88
2022/08/09 03:03:16;;;;;;;5.63;3.10;;;11.90;99.90;;;;;;5082535;28;20054;-87
2022/08/09 03:05:43;;;;;;;10.43;3.38;;;11.80;99.90;;;;;;5077522;28;20180;-88
2022/08/09 03:08:11;;;;;;;5.18;2.90;;;11.80;99.90;;;;;;5081568;28;20024;-87
2022/08/09 03:10:39;;;;;;;2.95;2.75;;;11.70;99.90;;;;;;5067937;28;20432;-88
2022/08/09 03:13:06;;;;;;;3.15;2.85;;;11.70;99.90;;;;;;5087639;28;20016;-87
2022/08/09 03:15:32;;;;;;;3.28;2.42;;;11.60;99.90;;;;;;5085811;28;20043;-87
2022/08/09 03:17:59;;;;;;;4.13;3.45;;;11.60;99.90;;;;;;5081245;28;20119;-88
2022/08/09 03:20:26;;;;;;;4.88;2.63;;;11.50;99.90;;;;;;5087403;28;20060;-88
2022/08/09 03:22:53;;;;;;;3.67;3.10;;;11.50;99.90;;;;;;5086354;28;20471;-88
2022/08/09 03:25:19;;;;;;;5.70;3.30;;;11.40;99.90;;;;;;5091125;28;20032;-87
2022/08/09 03:27:49;;;;;;;4.78;3.42;;;11.40;99.90;;;;;;5093901;28;20441;-88
2022/08/09 03:30:15;;;;;;;3.75;3.10;;;11.30;99.90;;;;;;5079325;28;20032;-88
2022/08/09 03:32:41;;;;;;;6.53;3.35;;;11.20;99.90;;;;;;5066276;28;20028;-88
2022/08/09 03:35:11;;;;;;;3.88;2.88;;;11.20;99.90;;;;;;5078003;28;20091;-88
2022/08/09 03:37:40;;;;;;;4.63;3.60;;;11.10;99.90;;;;;;5089705;28;20143;-89
2022/08/09 03:40:07;;;;;;;4.28;3.38;;;11.10;99.90;;;;;;5084494;28;20024;-88
2022/08/09 03:42:33;;;;;;;4.43;3.53;;;11.10;99.90;;;;;;5089029;28;20024;-87
2022/08/09 03:44:59;;;;;;;3.67;3.38;;;11.10;99.90;;;;;;5089444;28;20068;-90
2022/08/09 03:47:24;;;;;;;5.53;3.28;;;11.00;99.90;;;;;;5077949;28;20052;-88
2022/08/09 03:49:51;;;;;;;5.10;3.85;;;11.00;99.90;;;;;;5070048;28;20103;-88
2022/08/09 03:52:18;;;;;;;5.07;3.92;;;11.00;99.90;;;;;;5071680;28;20025;-88
2022/08/09 03:54:46;;;;;;;5.95;3.80;;;11.00;99.90;;;;;;5072215;28;20024;-87
2022/08/09 03:57:13;;;;;;;4.22;3.83;;;10.90;99.90;;;;;;5089124;28;20028;-88
2022/08/09 03:59:40;;;;;;;3.92;3.60;;;10.90;99.90;;;;;;5068807;28;20032;-88
2022/08/09 04:02:06;;;;;;;5.80;3.63;;;10.90;99.90;;;;;;5086155;28;20489;-88
2022/08/09 04:04:34;;;;;;;6.43;3.30;;;10.80;99.90;;;;;;5088603;28;20035;-88
2022/08/09 04:07:01;;;;;;;4.20;3.70;;;10.80;99.90;;;;;;5086755;28;20035;-87
2022/08/09 04:09:27;;;;;;;3.92;3.53;;;10.80;99.90;;;;;;5089099;28;20522;-87
2022/08/09 04:12:10;;;;;;;3.83;3.53;;;10.80;99.90;;;;;;5084260;28;20040;-85
2022/08/09 04:14:38;;;;;;;8.05;3.45;;;10.80;99.90;;;;;;5069637;28;20024;-87
2022/08/09 04:17:05;;;;;;;4.22;3.92;;;10.80;99.90;;;;;;5084767;28;20491;-87
2022/08/09 04:19:31;;;;;;;4.38;3.97;;;10.70;99.90;;;;;;5089920;28;20032;-88
2022/08/09 04:21:57;;;;;;;3.92;3.63;;;10.70;99.90;;;;;;5086496;28;20035;-88
2022/08/09 04:24:24;;;;;;;5.65;4.10;;;10.80;99.90;;;;;;5086931;28;20028;-86
2022/08/09 04:26:50;;;;;;;5.47;4.13;;;10.80;99.90;;;;;;5070345;28;20036;-88
2022/08/09 04:29:16;;;;;;;4.88;4.28;;;10.80;99.90;;;;;;5078077;28;20029;-88
2022/08/09 04:31:42;;;;;;;4.97;4.10;;;10.80;99.90;;;;;;5084861;28;20035;-88
2022/08/09 04:34:07;;;;;;;4.40;3.67;;;10.80;99.90;;;;;;5085629;28;20481;-86
2022/08/09 04:36:33;;;;;;;3.88;3.55;;;10.90;99.90;;;;;;5082805;28;20033;-87
2022/08/09 04:39:04;;;;;;;5.72;3.97;;;10.90;99.90;;;;;;5080855;28;20024;-88
2022/08/09 04:41:31;;;;;;;4.60;4.20;;;11.00;99.90;;;;;;5086279;28;20024;-87
2022/08/09 04:43:56;;;;;;;6.57;3.78;;;11.10;99.90;;;;;;5084112;28;20024;-88
2022/08/09 04:46:22;;;;;;;3.38;3.13;;;11.10;99.90;;;;;;5064122;28;20023;-86
2022/08/09 04:48:48;;;;;;;3.88;3.58;;;11.20;99.90;;;;;;5093075;28;20019;-88
2022/08/09 04:51:14;;;;;;;3.28;3.08;;;11.20;99.90;;;;;;5083320;28;20069;-88
2022/08/09 04:53:40;;;;;;;4.63;4.22;;;11.30;99.90;;;;;;5087288;28;20031;-88
2022/08/09 04:56:06;;;;;;;7.97;3.42;;;11.40;99.90;;;;;;5088590;28;20020;-88
2022/08/09 04:58:32;;;;;;;3.58;3.15;;;11.40;99.90;;;;;;5084452;28;20023;-88
2022/08/09 05:00:58;;;;;;;4.18;3.63;;;11.50;99.90;;;;;;5081825;28;20039;-88
2022/08/09 05:03:24;;;;;;;5.63;4.15;;;11.60;99.90;;;;;;5088837;28;20531;-88
2022/08/09 05:05:50;;;;;;;4.30;3.38;;;11.70;99.90;;;;;;5088447;28;20123;-88
2022/08/09 05:08:16;;;;;;;6.22;3.00;;;11.80;99.90;;;;;;5084676;28;20024;-88
2022/08/09 05:10:42;;;;;;;4.50;3.38;;;12.00;99.90;;;;;;5083386;28;20036;-87
2022/08/09 05:13:08;;;;;;;4.05;3.28;;;12.20;99.90;;;;;;5068052;28;20013;-88
2022/08/09 05:15:34;;;;;;;4.47;2.72;;;12.60;99.90;;;;;;5083163;28;20013;-88
2022/08/09 05:17:59;;;;;;;5.60;2.80;;;13.60;99.90;;;;;;5080352;28;20029;-89
2022/08/09 05:20:25;;;;;;;6.25;2.92;;;14.50;99.90;;;;;;5078893;28;20044;-88
2022/08/09 05:22:54;;;;;;;2.90;2.70;;;15.60;99.90;;;;;;5081111;28;20028;-87
2022/08/09 05:25:20;;;;;;;3.10;2.20;;;16.30;95.00;;;;;;5083955;28;20032;-89
2022/08/09 05:27:46;;;;;;;5.88;2.38;;;17.10;93.30;;;;;;5092053;28;20023;-90
2022/08/09 05:30:12;;;;;;;3.42;2.53;;;17.90;87.70;;;;;;5089077;28;20017;-90
2022/08/09 05:32:38;;;;;;;4.88;2.28;;;18.30;83.10;;;;;;5080719;28;20059;-88
2022/08/09 05:35:04;;;;;;;3.88;2.20;;;18.70;81.70;;;;;;5084963;28;20090;-87
2022/08/09 05:37:30;;;;;;;2.25;2.05;;;19.50;79.10;;;;;;5083726;28;20071;-89
2022/08/09 05:39:57;;;;;;;5.22;2.00;;;20.30;76.00;;;;;;5081945;28;20074;-88
2022/08/09 05:42:24;;;;;;;5.05;2.20;;;21.20;72.80;;;;;;5078784;28;20044;-90
2022/08/09 05:44:51;;;;;;;2.75;1.90;;;22.40;68.80;;;;;;5081060;28;20134;-88
2022/08/09 05:47:18;;;;;;;3.15;2.00;;;23.50;64.90;;;;;;5084066;28;20139;-89
2022/08/09 05:49:44;;;;;;;8.73;1.77;;;24.60;58.50;;;;;;5071611;28;20031;-89
2022/08/09 05:52:10;;;;;;;3.17;1.88;;;25.60;56.90;;;;;;5064502;28;20111;-89
2022/08/09 05:54:35;;;;;;;4.05;1.35;;;26.10;54.40;;;;;;5081723;28;20021;-90
2022/08/09 05:57:01;;;;;;;2.30;2.10;;;26.70;52.90;;;;;;5062115;28;20487;-90
2022/08/09 05:59:27;;;;;;;1.83;1.58;;;27.00;51.30;;;;;;5068944;28;20447;-89
2022/08/09 06:01:52;;;;;;;2.45;1.83;;;27.60;49.50;;;;;;5063546;28;20119;-90
2022/08/09 06:04:18;;;;;;;2.95;1.60;;;28.30;48.40;;;;;;5068498;28;20854;-89
2022/08/09 06:06:44;;;;;;;3.67;1.42;;;29.00;46.90;;;;;;5085707;28;20032;-89
2022/08/09 06:09:09;;;;;;;3.17;1.25;;;29.10;45.00;;;;;;5079488;28;20029;-90
2022/08/09 06:11:35;;;;;;;3.88;1.40;;;29.20;44.30;;;;;;5081406;28;20028;-90
2022/08/09 06:14:01;;;;;;;2.05;1.40;;;29.50;44.80;;;;;;5077234;28;20143;-89
2022/08/09 06:16:26;;;;;;;2.22;1.40;;;29.90;44.00;;;;;;5082742;28;20033;-90
2022/08/09 06:18:52;;;;;;;1.65;1.48;;;30.20;43.70;;;;;;5084056;28;20028;-90
2022/08/09 06:21:18;;;;;;;4.93;1.70;;;30.80;43.40;;;;;;5079780;28;20029;-90
2022/08/09 06:23:43;;;;;;;3.22;1.17;;;31.50;42.10;;;;;;5089772;28;20074;-90
2022/08/09 06:26:09;;;;;;;6.32;1.95;;;32.10;40.80;;;;;;5079991;28;20107;-88
2022/08/09 06:28:35;;;;;;;1.98;1.27;;;31.80;39.90;;;;;;5083837;28;20143;-90
2022/08/09 06:31:00;;;;;;;4.45;1.27;;;31.80;40.30;;;;;;5082831;28;20031;-89
2022/08/09 06:33:26;;;;;;;2.10;1.42;;;31.90;41.30;;;;;;5068726;28;20392;-90
2022/08/09 06:35:52;;;;;;;1.38;1.23;;;31.80;40.30;;;;;;5087977;28;20050;-89
2022/08/09 06:38:18;;;;;;;2.05;1.40;;;32.00;40.60;;;;;;5068258;28;20035;-89
2022/08/09 06:40:44;;;;;;;3.22;1.38;;;32.00;40.00;;;;;;5087587;28;20024;-89
2022/08/09 06:43:12;;;;;;;2.15;1.38;;;32.70;39.60;;;;;;5080901;28;20020;-89
2022/08/09 06:45:38;;;;;;;2.30;1.13;;;33.20;38.70;;;;;;5083442;28;20054;-90
2022/08/09 06:48:04;;;;;;;1.65;1.40;;;33.80;37.90;;;;;;5095623;28;20071;-89
2022/08/09 06:50:29;;;;;;;2.00;1.08;;;34.50;36.50;;;;;;5087975;28;20070;-90
2022/08/09 06:52:55;;;;;;;2.53;1.10;;;34.60;36.50;;;;;;5087591;28;20040;-90
2022/08/09 06:55:22;;;;;;;3.53;1.00;;;35.20;35.50;;;;;;5081521;28;20039;-92
2022/08/09 06:57:48;;;;;;;2.53;1.13;;;35.50;35.40;;;;;;5082645;28;20398;-90
2022/08/09 07:00:14;;;;;;;2.58;1.10;;;35.80;34.30;;;;;;5078940;28;20020;-90
2022/08/09 07:02:40;;;;;;;3.83;1.10;;;36.10;33.80;;;;;;5082100;28;20024;-89
2022/08/09 07:05:06;;;;;;;3.72;1.10;;;36.00;34.10;;;;;;5085384;28;20024;-90
2022/08/09 07:07:32;;;;;;;3.20;1.00;;;36.10;33.30;;;;;;5083060;28;20028;-91
2022/08/09 07:09:58;;;;;;;1.13;1.00;;;36.00;34.20;;;;;;5081997;28;20645;-90
2022/08/09 07:12:24;;;;;;;2.75;1.10;;;36.70;34.00;;;;;;5087336;28;20101;-91
2022/08/09 07:14:50;;;;;;;2.30;1.20;;;37.10;32.80;;;;;;5083278;28;20432;-89
2022/08/09 07:17:16;;;;;;;3.65;1.10;;;37.10;32.50;;;;;;5089949;28;20044;-91
2022/08/09 07:19:42;;;;;;;1.92;1.10;;;37.10;32.70;;;;;;5087975;28;20417;-92
2022/08/09 07:22:08;;;;;;;1.98;1.13;;;37.50;32.00;;;;;;5088741;28;20422;-91
2022/08/09 07:24:33;;;;;;;1.70;1.00;;;37.20;32.10;;;;;;5097931;28;20078;-90
2022/08/09 07:27:00;;;;;;;1.42;1.00;;;37.50;32.30;;;;;;5086525;28;20036;-91
2022/08/09 07:29:27;;;;;;;1.98;0.80;;;37.30;32.60;;;;;;5088486;28;20028;-91
2022/08/09 07:31:53;;;;;;;2.67;0.95;;;37.80;31.80;;;;;;5084713;28;20056;-92
2022/08/09 07:34:19;;;;;;;4.40;1.27;;;37.90;31.70;;;;;;5088231;28;20035;-91
2022/08/09 07:36:46;;;;;;;1.30;0.80;;;38.60;31.10;;;;;;5088668;28;20024;-91
2022/08/09 07:39:12;;;;;;;2.63;0.98;;;38.80;30.80;;;;;;5083956;28;20064;-91
2022/08/09 07:41:38;;;;;;;1.92;1.10;;;39.20;30.40;;;;;;5067720;28;20043;-91
2022/08/09 07:44:04;;;;;;;2.42;1.00;;;39.80;30.40;;;;;;5084979;28;20020;-90
2022/08/09 07:46:29;;;;;;;2.55;0.82;;;39.90;30.00;;;;;;5089120;28;20024;-92
2022/08/09 07:48:55;;;;;;;6.80;0.90;;;39.50;30.50;;;;;;5089705;28;20046;-91
2022/08/09 07:51:22;;;;;;;3.75;1.00;;;40.10;30.10;;;;;;5080028;28;20039;-90
2022/08/09 07:53:50;;;;;;;2.80;1.00;;;40.80;29.80;;;;;;5084169;28;20037;-91
2022/08/09 07:56:16;;;;;;;3.63;1.10;;;41.40;29.10;;;;;;5089119;28;20036;-89
2022/08/09 07:58:41;;;;;;;3.05;1.00;;;41.60;29.30;;;;;;5080020;28;20028;-90
2022/08/09 08:01:07;;;;;;;7.43;0.90;;;42.00;29.10;;;;;;5089267;28;20019;-89
2022/08/09 08:03:33;;;;;;;1.88;1.10;;;41.80;29.00;;;;;;5090661;28;20426;-90
2022/08/09 08:05:58;;;;;;;2.40;0.90;;;41.60;28.70;;;;;;5086460;28;20059;-91
2022/08/09 08:08:24;;;;;;;1.13;0.70;;;41.90;28.60;;;;;;5085147;28;20032;-92
2022/08/09 08:10:50;;;;;;;2.00;0.70;;;42.30;28.60;;;;;;5084333;28;20058;-91
2022/08/09 08:13:16;;;;;;;2.22;0.73;;;42.90;28.20;;;;;;5088076;28;20499;-89
2022/08/09 08:15:42;;;;;;;2.50;0.68;;;42.70;27.20;;;;;;5088132;28;20025;-92
2022/08/09 08:18:07;;;;;;;2.00;0.80;;;42.70;27.40;;;;;;5084322;28;20111;-90
2022/08/09 08:20:33;;;;;;;2.83;0.70;;;42.60;27.60;;;;;;5081180;28;20032;-92
2022/08/09 08:23:02;;;;;;;5.70;0.88;;;42.60;28.00;;;;;;5068211;28;20513;-94
2022/08/09 08:25:28;;;;;;;2.72;0.95;;;43.50;27.20;;;;;;5085290;28;20078;-92
2022/08/09 08:27:54;;;;;;;6.43;0.80;;;43.20;26.40;;;;;;5088066;28;20036;-92
2022/08/09 08:30:22;;;;;;;4.03;0.80;;;43.30;27.10;;;;;;5080149;28;20028;-90
2022/08/09 08:32:51;;;;;;;1.87;0.70;;;42.50;26.30;;;;;;5066033;28;20024;-91
2022/08/09 08:35:17;;;;;;;3.55;0.93;;;42.00;27.30;;;;;;5061589;28;20058;-92
2022/08/09 08:37:43;;;;;;;1.60;0.80;;;40.40;27.40;;;;;;5079087;28;20021;-90
2022/08/09 08:40:10;;;;;;;3.33;1.00;;;39.00;27.10;;;;;;5085454;28;20016;-90
2022/08/09 08:42:36;;;;;;;4.40;0.98;;;37.40;28.50;;;;;;5084525;28;20029;-91
2022/08/09 08:45:03;;;;;;;3.03;0.82;;;36.10;30.40;;;;;;5080706;28;20146;-91
2022/08/09 08:47:29;;;;;;;1.25;1.05;;;36.00;30.50;;;;;;5066292;28;20119;-90
2022/08/09 08:49:57;;;;;;;3.10;1.02;;;34.60;31.70;;;;;;5080119;28;20031;-92
2022/08/09 08:52:28;;;;;;;4.03;1.00;;;35.40;31.70;;;;;;5080772;28;20024;-89
2022/08/09 08:54:58;;;;;;;3.95;1.25;;;36.90;31.90;;;;;;5063519;28;20016;-90
2022/08/09 08:57:26;;;;;;;2.50;1.00;;;37.20;30.00;;;;;;5083212;28;20513;-92
2022/08/09 08:59:52;;;;;;;4.50;1.35;;;38.00;29.30;;;;;;5086856;28;20020;-90
2022/08/09 09:02:22;;;;;;;1.80;0.95;;;38.50;29.30;;;;;;5091606;28;20032;-92
2022/08/09 09:04:51;;;;;;;4.80;1.47;;;38.60;28.20;;;;;;5095434;28;20024;-88
2022/08/09 09:07:17;;;;;;;4.03;1.00;;;36.10;31.10;;;;;;5083845;28;20032;-91
2022/08/09 09:09:47;;;;;;;2.92;1.20;;;36.40;30.00;;;;;;5071577;28;20051;-92
2022/08/09 09:12:18;;;;;;;4.50;1.50;;;35.10;30.90;;;;;;5089269;28;20031;-90
2022/08/09 09:14:44;;;;;;;;;;;34.30;31.50;;;;;;5073223;28;20032;-91
2022/08/09 09:17:10;;;;;;;4.30;1.17;;;34.30;32.50;;;;;;5071776;28;19918;-92
2022/08/09 09:19:36;;;;;;;4.15;1.30;;;34.70;33.10;;;;;;5079770;28;20035;-91
2022/08/09 09:22:07;;;;;;;2.92;1.40;;;35.70;31.70;;;;;;5066470;28;20016;-91
2022/08/09 09:24:36;;;;;;;36.65;2.95;;;35.20;30.70;;;;;;5090257;28;20032;-89
2022/08/09 09:27:03;;;;;;;2.75;1.13;;;34.60;33.20;;;;;;5083675;28;20545;-91
2022/08/09 09:29:34;;;;;;;2.42;1.25;;;35.40;31.80;;;;;;5084139;28;20037;-91
2022/08/09 09:32:01;;;;;;;4.05;1.20;;;36.50;30.70;;;;;;5067133;28;20016;-92
2022/08/09 09:34:28;;;;;;;2.38;1.08;;;35.70;31.00;;;;;;5072929;28;20020;-90
2022/08/09 09:36:54;;;;;;;3.72;1.10;;;35.80;30.40;;;;;;5083594;28;20040;-92
2022/08/09 09:39:22;;;;;;;2.88;1.00;;;36.20;30.10;;;;;;5077887;28;20112;-92
2022/08/09 09:41:48;;;;;;;2.70;0.95;;;36.90;30.30;;;;;;5087816;28;20040;-92
2022/08/09 09:44:28;;;;;;;4.72;1.45;;;36.30;29.50;;;;;;5088970;28;20489;-92
2022/08/09 09:46:55;;;;;;;;;;;36.10;31.10;;;;;;5095258;28;20032;-91
2022/08/09 09:49:23;;;;;;;3.13;1.10;;;36.20;31.50;;;;;;5098068;28;19936;-91
2022/08/09 09:51:48;;;;;;;1.73;1.00;;;36.50;31.10;;;;;;5082146;28;20035;-90
2022/08/09 09:54:17;;;;;;;6.00;1.10;;;36.60;29.90;;;;;;5081147;28;20032;-92
2022/08/09 09:56:48;;;;;;;4.85;1.00;;;36.80;30.00;;;;;;5082231;28;20059;-92
2022/08/09 09:59:31;;;;;;;2.22;0.90;;;36.70;30.60;;;;;;5080966;28;20497;-92
2022/08/09 10:01:59;;;;;;;1.38;0.95;;;35.70;30.20;;;;;;5066901;28;20075;-91
2022/08/09 10:04:25;;;;;;;2.35;0.80;;;35.10;32.20;;;;;;5082519;28;20031;-92
2022/08/09 10:06:50;;;;;;;5.75;1.10;;;35.70;31.80;;;;;;5088734;28;20032;-91
2022/08/09 10:09:16;;;;;;;1.95;1.10;;;36.20;31.50;;;;;;5072704;28;20463;-91
2022/08/09 10:11:42;;;;;;;3.40;1.08;;;36.50;30.20;;;;;;5078790;28;20032;-91
2022/08/09 10:14:24;;;;;;;1.35;0.90;;;36.80;30.80;;;;;;5079341;28;20040;-91
2022/08/09 10:16:50;;;;;;;2.00;0.95;;;36.20;29.90;;;;;;5089022;28;20028;-91
2022/08/09 10:19:16;;;;;;;1.00;0.90;;;35.80;31.10;;;;;;5068121;28;20024;-91
2022/08/09 10:21:49;;;;;;;1.95;0.90;;;35.30;31.20;;;;;;5084051;28;20031;-91
2022/08/09 10:24:18;;;;;;;1.25;1.08;;;33.80;32.10;;;;;;5092880;28;20032;-91
2022/08/09 10:26:45;;;;;;;2.30;1.05;;;33.10;33.60;;;;;;5076697;28;20115;-91
2022/08/09 10:29:12;;;;;;;3.67;1.20;;;32.10;35.20;;;;;;5087054;28;20024;-90
2022/08/09 10:31:39;;;;;;;2.67;1.23;;;32.70;36.10;;;;;;5086571;28;20035;-91
2022/08/09 10:34:06;;;;;;;2.80;1.90;;;34.00;34.20;;;;;;5064097;28;20070;-91
2022/08/09 10:36:32;;;;;;;4.63;1.40;;;34.80;33.20;;;;;;5086808;28;20040;-90
2022/08/09 10:38:58;;;;;;;3.28;1.00;;;35.20;31.30;;;;;;5069999;28;20082;-91
2022/08/09 10:41:24;;;;;;;3.95;1.02;;;35.30;32.20;;;;;;5081682;28;20028;-90
2022/08/09 10:43:50;;;;;;;2.63;1.60;;;35.10;32.00;;;;;;5078682;28;20036;-91
2022/08/09 10:46:57;;;;;;;6.63;1.33;;;34.50;32.80;;;;;;5089064;28;20035;-91
2022/08/09 10:49:42;;;;;;;2.38;1.33;;;34.20;33.90;;;;;;5057533;28;20024;-90
2022/08/09 10:52:36;;;;;;;2.05;0.90;;;34.70;33.40;;;;;;5087550;28;20050;-91
2022/08/09 10:55:20;;;;;;;4.00;1.10;;;34.30;32.00;;;;;;5073307;28;20020;-91
2022/08/09 10:57:46;;;;;;;3.33;1.17;;;33.80;34.60;;;;;;5087458;28;20120;-92
2022/08/09 11:00:40;;;;;;;1.45;1.00;;;34.00;32.70;;;;;;5084080;28;20487;-92
2022/08/09 11:03:26;;;;;;;2.55;0.85;;;34.10;33.00;;;;;;5095412;28;20032;-90
2022/08/09 11:06:17;;;;;;;2.00;1.00;;;34.30;32.30;;;;;;5070676;28;20377;-90
2022/08/09 11:08:44;;;;;;;1.88;1.10;;;33.70;33.20;;;;;;5069688;28;20033;-90
2022/08/09 11:11:10;;;;;;;1.10;1.00;;;33.00;33.20;;;;;;5085758;28;20023;-91
2022/08/09 11:13:36;;;;;;;2.40;1.20;;;32.00;34.30;;;;;;5084519;28;20575;-92
2022/08/09 11:16:33;;;;;;;3.13;1.20;;;31.20;35.40;;;;;;5077425;28;20052;-91
2022/08/09 11:18:59;;;;;;;1.98;1.00;;;31.10;36.20;;;;;;5084986;28;20104;-89
2022/08/09 11:21:50;;;;;;;2.83;1.13;;;30.80;36.20;;;;;;5080612;28;20559;-89
2022/08/09 11:24:17;;;;;;;3.05;0.90;;;30.50;36.70;;;;;;5059124;28;20067;-91
2022/08/09 11:26:43;;;;;;;3.92;1.45;;;31.00;38.40;;;;;;5081737;28;20060;-90
2022/08/09 11:29:47;;;;;;;1.67;1.10;;;32.20;37.30;;;;;;5084785;28;20043;-90
2022/08/09 11:32:39;;;;;;;2.10;1.13;;;32.30;34.20;;;;;;5065472;28;20031;-92
2022/08/09 11:35:14;;;;;;;1.75;1.30;;;31.60;35.10;;;;;;5081495;28;20021;-91
2022/08/09 11:37:41;;;;;;;3.30;1.20;;;31.80;35.90;;;;;;5080496;28;20036;-89
2022/08/09 11:40:11;;;;;;;11.50;1.40;;;32.10;36.20;;;;;;5083541;28;20031;-90
2022/08/09 11:42:56;;;;;;;5.70;1.00;;;32.70;35.70;;;;;;5089349;28;20027;-91
2022/08/09 11:45:29;;;;;;;1.10;1.00;;;33.20;33.90;;;;;;5086916;28;20047;-91
2022/08/09 11:48:01;;;;;;;2.95;1.00;;;33.80;34.90;;;;;;5084733;28;20024;-89
2022/08/09 11:50:27;;;;;;;6.75;1.10;;;34.40;33.70;;;;;;5063576;28;20059;-91
2022/08/09 11:53:16;;;;;;;3.00;1.08;;;34.50;33.20;;;;;;5071939;28;20021;-92
2022/08/09 11:55:43;;;;;;;4.72;0.95;;;34.30;33.10;;;;;;5069277;28;20044;-90
2022/08/09 11:58:14;;;;;;;1.77;1.00;;;34.00;32.90;;;;;;5081421;28;20059;-91
2022/08/09 12:00:51;;;;;;;2.08;1.20;;;33.70;33.80;;;;;;5086180;28;20423;-90
2022/08/09 12:03:24;;;;;;;3.88;1.10;;;33.20;34.70;;;;;;5068087;28;20420;-89
2022/08/09 12:05:53;;;;;;;5.35;1.20;;;33.20;35.10;;;;;;5086169;28;20051;-90
2022/08/09 12:08:20;;;;;;;0.90;0.90;;;33.20;35.40;;;;;;5082897;28;20107;-91
2022/08/09 12:10:54;;;;;;;2.15;0.88;;;33.20;33.50;;;;;;5085100;28;20036;-90
2022/08/09 12:13:40;;;;;;;1.58;1.00;;;32.90;33.80;;;;;;5085806;28;20035;-91
2022/08/09 12:16:11;;;;;;;13.30;1.25;;;33.40;33.90;;;;;;5084298;28;20575;-92
2022/08/09 12:18:41;;;;;;;2.97;1.08;;;32.20;35.50;;;;;;5073343;28;20047;-90
2022/08/09 12:21:08;;;;;;;1.73;1.20;;;32.80;36.10;;;;;;5085864;28;20499;-88
2022/08/09 12:23:40;;;;;;;3.33;0.82;;;33.50;34.50;;;;;;5071668;28;20553;-89
2022/08/09 12:26:06;;;;;;;2.83;1.15;;;34.20;34.20;;;;;;5080740;28;20496;-87
2022/08/09 12:28:38;;;;;;;5.70;1.17;;;34.60;32.60;;;;;;5082459;28;20071;-89
2022/08/09 12:31:20;;;;;;;2.63;1.05;;;34.50;33.60;;;;;;5071892;28;20036;-90
2022/08/09 12:33:46;;;;;;;3.85;1.20;;;34.30;33.60;;;;;;5076284;28;20024;-90
2022/08/09 12:36:12;;;;;;;9.02;1.25;;;33.60;34.00;;;;;;5084668;28;20032;-88
2022/08/09 12:38:38;;;;;;;8.65;5.75;;;33.20;34.40;;;;;;5084802;28;20091;-87
2022/08/09 12:41:05;;;;;;;4.57;1.80;;;32.60;35.40;;;;;;5081610;28;20029;-87
2022/08/09 12:43:31;;;;;;;3.08;1.33;;;32.10;35.30;;;;;;5077726;28;20052;-87
2022/08/09 12:45:58;;;;;;;1.88;1.10;;;32.20;36.40;;;;;;5066525;28;20400;-89
2022/08/09 12:48:27;;;;;;;2.97;1.20;;;32.40;36.10;;;;;;5083470;28;20052;-88
2022/08/09 12:50:53;;;;;;;3.53;0.90;;;32.90;34.30;;;;;;5083029;28;20024;-89
2022/08/09 12:53:39;;;;;;;2.15;1.10;;;32.90;33.80;;;;;;5082549;28;20126;-91
2022/08/09 12:56:16;;;;;;;2.08;0.95;;;33.00;34.20;;;;;;5079654;28;20158;-89